Historyczne dane pomiarowe

Dodano dane terminowe – wersja testowa.

Dane z okresu 1951-2019

Wersja bazy: 1.34 [2019-03-16, lista zmian], aktualizacja planowana na 2019-04-15

Dane meteo z obszaru Polski uzyskane na podstawie danych udostępnionych przez Instytut Meteorologii i Gospodarki Wodnej – Państwowy Instytut Badawczy.

 

Wybierz Datę:    

       

TemperaturaWilgotnośćWiatrCiśnienieOpadyŚniegCzas trwania zjawisk
 Stacja t tx tn tng RH VA  wxwx mslp ppp RRR   cm mm wxwxwxwxwxwxwx
1986-12-13 -0.4 2.2 -1.6 -1.3 98.3- 8.0 1.7---- 0.0------------
1986-12-14 -2.4 0.1 -3.8 -2.3 94.3- 8.0 2.3---- 0.7------------
1986-12-15 0.7 1.6 -0.4 0.0 97.0- 8.0 1.7---- 0.0------------
1986-12-16 0.6 2.0 -0.6 0.0 98.0- 6.7 6.7---- 2.8------------
1986-12-17 2.7 3.1 0.1 1.9 96.0- 6.7 4.7---- 0.8------------
1986-12-18 3.2 3.8 2.5 1.5 96.0- 5.3 2.7---- 6.6------------
1986-12-19 1.9 4.0 0.8 0.5 95.3- 8.0 7.3---- 6.2------------
1986-12-20 0.5 1.2 -0.8 -1.5 86.8- 6.3 7.3---- 0.4------------
1986-12-21 -3.6 -0.8 -5.2 -6.0 76.8- 0.7 2.0---- 0.0------------
1986-12-22 -3.4 -2.5 -5.7 -6.8 88.5- 6.7 4.0---- 5.3------------
1986-12-23 -2.2 -1.2 -3.3 -7.2 95.5- 7.3 3.3---- 0.4-- 4---------
1986-12-24 -5.6 -2.6 -9.6-11.2 93.8- 6.0 0.3---- 0.0-- 4---------
1986-12-25 -5.7 -4.3 -7.5-13.0 98.3- 5.7 1.3---- 0.0-- 3---------
1986-12-26 -6.5 -5.2 -7.8 -5.0 91.0- 7.7 4.7---- 1.7-- 3---------
1986-12-27 -1.1 0.2 -5.2 -3.0 96.8- 7.3 1.3---- 1.3-- 5---------
1986-12-28 -0.6 1.2 -3.2 -1.5 96.3- 6.7 4.3---- 2.4-- 6---------
1986-12-29 1.2 3.8 -3.2 -1.3 90.3- 8.0 6.0---- 4.0-- 8---------
1986-12-30 0.3 3.0 -2.2 -0.3 74.3- 3.0 5.7---- 1.3------------
1986-12-31 -1.6 0.5 -4.0 -5.2 97.0- 8.0 2.7---- 0.7-- 2---------
1987-01-01 -1.3 1.5 -5.5 -9.9 95.8- 6.7 5.7---- 1.2-- 2---------
1987-01-02-10.8 -5.5-12.7-17.1 81.5- 3.0 7.7---- 0.6-- 3---------
1987-01-03 -9.2 -3.0-15.8-18.5 88.8- 6.7 2.3---- 1.0-- 4---------
1987-01-04 -5.7 -3.0 -7.1-11.5 91.5- 4.0 2.3---- 1.0-- 5---------
1987-01-05 -2.5 1.8 -8.3 -9.0 97.0- 8.0 5.0---- 1.7-- 6---------
1987-01-06 -2.9 1.8-11.8-16.5 92.5- 7.3 5.7---- 1.1-- 7---------
1987-01-07-16.0-11.8-19.8-25.0 83.3- 0.0 1.7---- 0.0-- 9---------
1987-01-08-14.1 -8.6-23.8-19.5 85.3- 6.0 2.3---- 2.7-- 9---------
1987-01-09 -9.1 -6.0-15.8-17.0 93.0- 7.0 3.3---- 1.3-- 13---------
1987-01-10-21.4-12.4-24.2-31.7 89.5- 0.3 0.0---- 0.0-- 15---------
1987-01-11-26.4-23.6-30.0-32.0 88.8- 0.7 1.7---- 0.3-- 15---------
373.9 ms

 

Źródłem pochodzenia danych jest Instytut Meteorologii i Gospodarki Wodnej – Państwowy Instytut Badawczy. Dane Instytutu Meteorologii i Gospodarki Wodnej – Państwowego Instytutu Badawczego zostały przetworzone.

Dane źródłowe można odnaleźć na stronie https://dane.imgw.pl